Time;durP1;ratioP1;P1;durP2;ratioP2;P2;SDS_P1;SDS_P2;PMS_P1;PMS_P2;Temp;Humidity;BMP_temperature;BMP_pressure;BME280_temperature;BME280_humidity;BME280_pressure;Samples;Min_cycle;Max_cycle;Signal;HPM_P1;HPM_P2
2021/07/24 00:01:58;;;;;;;0.50;0.33;;;17.90;99.90;;;;;;5100240;28;20447;-83
2021/07/24 00:04:25;;;;;;;0.50;0.40;;;17.80;99.90;;;;;;5100906;28;20478;-84
2021/07/24 00:06:53;;;;;;;0.50;0.30;;;17.70;99.90;;;;;;5100872;28;20446;-84
2021/07/24 00:09:19;;;;;;;0.50;0.40;;;17.70;99.90;;;;;;5100757;28;20467;-84
2021/07/24 00:11:46;;;;;;;0.50;0.30;;;17.70;99.90;;;;;;5100390;28;20443;-84
2021/07/24 00:14:13;;;;;;;1.60;1.50;;;17.50;99.90;;;;;;5101060;28;20458;-83
2021/07/24 00:16:40;;;;;;;0.50;0.30;;;17.50;99.90;;;;;;5100688;28;20454;-84
2021/07/24 00:19:06;;;;;;;0.50;0.40;;;17.50;99.90;;;;;;5100926;28;20469;-81
2021/07/24 00:21:33;;;;;;;0.60;0.40;;;17.40;99.90;;;;;;5100284;28;20946;-84
2021/07/24 00:24:01;;;;;;;0.50;0.30;;;17.50;99.90;;;;;;5100422;28;20467;-83
2021/07/24 00:26:28;;;;;;;0.50;0.30;;;17.50;99.90;;;;;;5100700;28;20507;-84
2021/07/24 00:28:55;;;;;;;2.40;1.17;;;17.40;99.90;;;;;;5100822;28;20444;-84
2021/07/24 00:31:21;;;;;;;0.50;0.40;;;17.40;99.90;;;;;;5099612;28;20435;-83
2021/07/24 00:33:48;;;;;;;0.50;0.40;;;17.50;99.90;;;;;;5100321;28;20461;-83
2021/07/24 00:36:15;;;;;;;3.50;1.57;;;17.40;99.90;;;;;;5100221;28;20434;-83
2021/07/24 00:38:42;;;;;;;0.50;0.50;;;17.50;99.90;;;;;;5099840;28;20978;-83
2021/07/24 00:41:15;;;;;;;0.50;0.40;;;17.50;99.90;;;;;;5099693;28;20990;-84
2021/07/24 00:43:45;;;;;;;0.50;0.30;;;17.50;99.90;;;;;;5099840;28;20456;-84
2021/07/24 00:46:14;;;;;;;0.60;0.40;;;17.50;99.90;;;;;;5108634;28;20435;-83
2021/07/24 00:48:43;;;;;;;0.50;0.40;;;17.40;99.90;;;;;;5100855;28;20458;-84
2021/07/24 00:51:10;;;;;;;0.50;0.40;;;17.40;99.90;;;;;;5100054;28;20436;-83
2021/07/24 00:53:37;;;;;;;0.50;0.40;;;17.40;99.90;;;;;;5100515;28;20951;-84
2021/07/24 00:56:05;;;;;;;0.97;0.97;;;17.30;99.90;;;;;;5100555;28;20526;-83
2021/07/24 00:58:35;;;;;;;0.60;0.60;;;17.30;99.90;;;;;;5099954;28;20467;-83
2021/07/24 01:01:03;;;;;;;0.50;0.30;;;17.20;99.90;;;;;;5099639;28;20813;-83
2021/07/24 01:03:29;;;;;;;0.50;0.30;;;17.20;99.90;;;;;;5099681;28;20478;-84
2021/07/24 01:05:58;;;;;;;0.70;0.70;;;17.20;99.90;;;;;;5100767;28;20927;-83
2021/07/24 01:08:25;;;;;;;0.50;0.40;;;17.20;99.90;;;;;;5101608;28;20474;-82
2021/07/24 01:10:53;;;;;;;0.50;0.37;;;17.20;99.90;;;;;;5100247;28;20462;-83
2021/07/24 01:13:22;;;;;;;0.50;0.40;;;17.10;99.90;;;;;;5100152;28;20431;-80
2021/07/24 01:15:52;;;;;;;0.90;0.90;;;17.10;99.90;;;;;;5099854;28;20436;-84
2021/07/24 01:18:19;;;;;;;0.50;0.30;;;17.10;99.90;;;;;;5100328;28;20470;-84
2021/07/24 01:20:46;;;;;;;0.50;0.30;;;17.00;99.90;;;;;;5099927;28;20436;-84
2021/07/24 01:23:17;;;;;;;0.50;0.30;;;17.00;99.90;;;;;;5100634;28;20471;-83
2021/07/24 01:25:45;;;;;;;0.50;0.33;;;16.90;99.90;;;;;;5099926;28;20545;-84
2021/07/24 01:28:12;;;;;;;0.50;0.40;;;16.80;99.90;;;;;;5099669;28;20511;-83
2021/07/24 01:30:38;;;;;;;0.50;0.40;;;16.80;99.90;;;;;;5099026;28;20440;-84
2021/07/24 01:33:05;;;;;;;0.50;0.40;;;16.80;99.90;;;;;;5099204;28;20940;-83
2021/07/24 01:35:32;;;;;;;0.50;0.40;;;16.70;99.90;;;;;;5099330;28;20440;-83
2021/07/24 01:37:59;;;;;;;0.50;0.37;;;16.70;99.90;;;;;;5098388;28;20558;-84
2021/07/24 01:40:27;;;;;;;0.50;0.40;;;16.70;99.90;;;;;;5098935;28;20440;-83
2021/07/24 01:42:58;;;;;;;0.50;0.40;;;16.70;99.90;;;;;;5098939;28;20800;-84
2021/07/24 01:45:25;;;;;;;1.27;1.17;;;16.70;99.90;;;;;;5098908;28;20464;-81
2021/07/24 01:47:51;;;;;;;0.50;0.40;;;16.60;99.90;;;;;;5098720;28;20987;-84
2021/07/24 01:53:05;;;;;;;0.50;0.40;;;16.60;99.90;;;;;;5098745;28;20478;-84
2021/07/24 01:55:38;;;;;;;0.50;0.40;;;16.60;99.90;;;;;;5099455;28;20442;-83
2021/07/24 01:58:07;;;;;;;0.50;0.40;;;16.60;99.90;;;;;;5098418;28;20479;-82
2021/07/24 02:00:35;;;;;;;0.50;0.40;;;16.60;99.90;;;;;;5098498;28;20681;-84
2021/07/24 02:03:07;;;;;;;1.03;0.77;;;16.60;99.90;;;;;;5098703;28;20817;-84
2021/07/24 02:05:40;;;;;;;0.50;0.40;;;16.50;99.90;;;;;;5098657;28;20434;-84
2021/07/24 02:08:08;;;;;;;0.50;0.40;;;16.40;99.90;;;;;;5098681;28;20471;-82
2021/07/24 02:10:37;;;;;;;0.50;0.30;;;16.40;99.90;;;;;;5097700;28;20458;-83
2021/07/24 02:13:04;;;;;;;0.50;0.40;;;16.30;99.90;;;;;;5097862;28;20801;-84
2021/07/24 02:15:32;;;;;;;0.50;0.47;;;16.30;99.90;;;;;;5098337;28;20438;-84
2021/07/24 02:17:59;;;;;;;0.50;0.40;;;16.30;99.90;;;;;;5098655;28;20451;-83
2021/07/24 02:20:27;;;;;;;0.50;0.40;;;16.40;99.90;;;;;;5098439;28;20439;-85
2021/07/24 02:22:55;;;;;;;0.50;0.40;;;16.30;99.90;;;;;;5099782;28;20445;-83
2021/07/24 02:25:21;;;;;;;0.50;0.40;;;16.40;99.90;;;;;;5097726;28;20474;-83
2021/07/24 02:27:51;;;;;;;0.50;0.40;;;16.40;99.90;;;;;;5098938;28;20960;-83
2021/07/24 02:30:18;;;;;;;0.50;0.40;;;16.40;99.90;;;;;;5098002;28;20458;-83
2021/07/24 02:32:46;;;;;;;0.60;0.50;;;16.40;99.90;;;;;;5098399;28;20443;-83
2021/07/24 02:35:13;;;;;;;0.50;0.40;;;16.30;99.90;;;;;;5097626;28;20500;-83
2021/07/24 02:37:40;;;;;;;1.20;1.20;;;16.30;99.90;;;;;;5097049;28;20458;-83
2021/07/24 02:40:08;;;;;;;0.50;0.50;;;16.30;99.90;;;;;;5097540;28;20451;-78
2021/07/24 02:42:35;;;;;;;1.10;1.00;;;16.20;99.90;;;;;;5097976;28;20530;-83
2021/07/24 02:45:03;;;;;;;0.90;0.70;;;16.30;99.90;;;;;;5097481;28;20500;-84
2021/07/24 02:47:30;;;;;;;0.60;0.60;;;16.20;99.90;;;;;;5097446;28;20460;-83
2021/07/24 02:49:57;;;;;;;0.60;0.60;;;16.20;99.90;;;;;;5097773;28;20446;-84
2021/07/24 02:52:23;;;;;;;0.50;0.40;;;16.20;99.90;;;;;;5097236;28;20445;-83
2021/07/24 02:54:50;;;;;;;0.50;0.40;;;16.20;99.90;;;;;;5097751;28;20439;-84
2021/07/24 02:57:17;;;;;;;0.97;0.77;;;16.20;99.90;;;;;;5097454;28;20439;-83
2021/07/24 02:59:44;;;;;;;0.50;0.40;;;16.10;99.90;;;;;;5097649;28;20449;-83
2021/07/24 03:02:14;;;;;;;0.60;0.60;;;16.10;99.90;;;;;;5097423;28;20439;-83
2021/07/24 03:04:40;;;;;;;0.50;0.30;;;16.10;99.90;;;;;;5098200;28;20480;-83
2021/07/24 03:07:07;;;;;;;1.13;0.90;;;16.10;99.90;;;;;;5097285;28;20442;-84
2021/07/24 03:09:34;;;;;;;0.80;0.70;;;16.10;99.90;;;;;;5097309;28;20458;-82
2021/07/24 03:12:01;;;;;;;0.50;0.40;;;16.00;99.90;;;;;;5096777;28;20447;-83
2021/07/24 03:14:28;;;;;;;0.50;0.40;;;15.90;99.90;;;;;;5097977;28;20432;-84
2021/07/24 03:16:54;;;;;;;0.50;0.40;;;15.90;99.90;;;;;;5097325;28;20446;-84
2021/07/24 03:19:23;;;;;;;0.50;0.40;;;15.90;99.90;;;;;;5097250;28;20470;-83
2021/07/24 03:21:49;;;;;;;0.50;0.50;;;15.90;99.90;;;;;;5097433;28;20803;-84
2021/07/24 03:24:17;;;;;;;0.50;0.40;;;15.90;99.90;;;;;;5097508;28;20837;-84
2021/07/24 03:26:44;;;;;;;0.50;0.40;;;15.80;99.90;;;;;;5101353;28;20440;-84
2021/07/24 03:29:11;;;;;;;0.50;0.40;;;15.80;99.90;;;;;;5102298;28;20466;-84
2021/07/24 03:31:38;;;;;;;0.93;0.90;;;15.80;99.90;;;;;;5101171;28;20446;-83
2021/07/24 03:34:04;;;;;;;0.60;0.60;;;15.80;99.90;;;;;;5101511;28;20439;-84
2021/07/24 03:36:32;;;;;;;0.50;0.40;;;15.80;99.90;;;;;;5101278;28;20769;-84
2021/07/24 03:38:59;;;;;;;0.50;0.30;;;15.80;99.90;;;;;;5101763;28;20466;-83
2021/07/24 03:41:26;;;;;;;0.50;0.40;;;15.80;99.90;;;;;;5101048;28;20439;-83
2021/07/24 03:43:53;;;;;;;4.80;2.50;;;15.70;99.90;;;;;;5100911;28;20443;-83
2021/07/24 03:46:21;;;;;;;0.53;0.43;;;15.70;99.90;;;;;;5101107;28;20439;-83
2021/07/24 03:48:48;;;;;;;0.50;0.40;;;15.70;99.90;;;;;;5101735;28;20458;-84
2021/07/24 03:51:16;;;;;;;0.50;0.40;;;15.70;99.90;;;;;;5100498;28;20533;-83
2021/07/24 03:53:44;;;;;;;0.50;0.40;;;15.70;99.90;;;;;;5101154;28;20959;-84
2021/07/24 03:56:15;;;;;;;0.50;0.40;;;15.70;99.90;;;;;;5101011;28;20446;-83
2021/07/24 03:58:42;;;;;;;0.50;0.40;;;15.70;99.90;;;;;;5100996;28;20975;-83
2021/07/24 04:01:09;;;;;;;0.50;0.40;;;15.70;99.90;;;;;;5100313;28;20204;-84
2021/07/24 04:03:36;;;;;;;0.53;0.40;;;15.80;99.90;;;;;;5101278;28;20440;-83
2021/07/24 04:06:04;;;;;;;0.50;0.40;;;15.80;99.90;;;;;;5101195;28;20471;-83
2021/07/24 04:08:31;;;;;;;1.23;0.87;;;15.80;99.90;;;;;;5100049;28;20473;-83
2021/07/24 04:11:00;;;;;;;2.63;1.03;;;15.80;99.90;;;;;;5100011;28;20439;-83
2021/07/24 04:13:27;;;;;;;0.50;0.33;;;15.80;99.90;;;;;;5099540;28;20443;-82
2021/07/24 04:15:53;;;;;;;0.50;0.40;;;15.90;99.90;;;;;;5102565;28;20452;-82
2021/07/24 04:18:24;;;;;;;0.50;0.40;;;15.90;99.90;;;;;;5116431;28;20438;-81
2021/07/24 04:20:51;;;;;;;0.50;0.30;;;15.90;99.90;;;;;;5118494;28;20438;-80
2021/07/24 04:23:18;;;;;;;0.50;0.40;;;15.90;99.90;;;;;;5105968;28;20431;-83
2021/07/24 04:25:44;;;;;;;0.50;0.40;;;15.90;99.90;;;;;;5104133;28;21011;-84
2021/07/24 04:28:12;;;;;;;0.50;0.40;;;15.90;99.90;;;;;;5103259;28;20455;-84
2021/07/24 04:30:39;;;;;;;0.97;0.87;;;16.00;99.90;;;;;;5099819;28;20436;-83
2021/07/24 04:33:06;;;;;;;0.50;0.30;;;16.00;99.90;;;;;;5097104;28;20443;-83
2021/07/24 04:35:33;;;;;;;0.50;0.40;;;16.10;99.90;;;;;;5097306;28;20435;-83
2021/07/24 04:37:59;;;;;;;0.50;0.37;;;16.20;99.90;;;;;;5096032;28;20468;-82
2021/07/24 04:40:26;;;;;;;0.50;0.40;;;16.30;99.90;;;;;;5096868;28;20454;-83
2021/07/24 04:42:53;;;;;;;0.60;0.53;;;16.50;99.90;;;;;;5097313;28;20530;-82
2021/07/24 04:45:21;;;;;;;0.50;0.40;;;16.60;99.90;;;;;;5096518;28;20985;-80
2021/07/24 04:47:48;;;;;;;1.00;0.90;;;16.70;99.90;;;;;;5096769;28;20462;-82
2021/07/24 04:50:14;;;;;;;1.17;0.50;;;16.80;99.90;;;;;;5096461;28;20439;-80
2021/07/24 04:52:42;;;;;;;1.00;0.90;;;16.90;99.90;;;;;;5096630;28;20451;-82
2021/07/24 04:55:10;;;;;;;0.50;0.30;;;16.90;99.90;;;;;;5096563;28;20436;-83
2021/07/24 04:57:37;;;;;;;1.23;1.13;;;16.90;99.90;;;;;;5096229;28;20468;-83
2021/07/24 05:00:07;;;;;;;0.50;0.40;;;17.00;99.90;;;;;;5096480;28;20436;-81
2021/07/24 05:02:36;;;;;;;0.77;0.77;;;17.10;99.90;;;;;;5096999;28;20888;-83
2021/07/24 05:05:04;;;;;;;0.60;0.40;;;17.10;99.90;;;;;;5096432;28;20463;-82
2021/07/24 05:07:33;;;;;;;0.60;0.40;;;17.20;99.90;;;;;;5095914;28;20463;-83
2021/07/24 05:10:08;;;;;;;0.57;0.47;;;17.20;99.90;;;;;;5096077;28;20420;-82
2021/07/24 05:12:34;;;;;;;0.50;0.37;;;17.20;99.90;;;;;;5113864;28;20432;-83
2021/07/24 05:15:02;;;;;;;0.60;0.50;;;17.20;99.90;;;;;;5116612;28;20434;-81
2021/07/24 05:17:29;;;;;;;0.50;0.40;;;17.30;99.90;;;;;;5117656;28;20439;-83
2021/07/24 05:19:57;;;;;;;0.50;0.30;;;17.30;99.90;;;;;;5110983;28;20431;-83
2021/07/24 05:22:24;;;;;;;0.50;0.30;;;17.40;99.90;;;;;;5095593;28;20487;-83
2021/07/24 05:24:51;;;;;;;0.50;0.30;;;17.60;99.90;;;;;;5096289;28;20487;-82
2021/07/24 05:27:18;;;;;;;0.50;0.30;;;17.70;99.90;;;;;;5096997;28;20434;-83
2021/07/24 05:29:44;;;;;;;1.53;0.80;;;17.80;99.90;;;;;;5097242;28;20514;-82
2021/07/24 05:32:11;;;;;;;1.50;1.40;;;17.80;99.90;;;;;;5096656;28;20816;-82
2021/07/24 05:34:38;;;;;;;0.50;0.30;;;17.90;99.90;;;;;;5097046;28;20522;-84
2021/07/24 05:37:06;;;;;;;0.50;0.30;;;18.00;99.90;;;;;;5096063;28;20446;-79
2021/07/24 05:39:33;;;;;;;0.50;0.40;;;18.10;99.90;;;;;;5097904;28;20420;-84
2021/07/24 05:42:00;;;;;;;1.80;1.70;;;18.30;99.90;;;;;;5096155;28;20809;-83
2021/07/24 05:44:26;;;;;;;0.50;0.40;;;18.50;99.90;;;;;;5096341;28;20459;-82
2021/07/24 05:46:53;;;;;;;1.03;1.03;;;18.70;99.90;;;;;;5096068;28;20432;-82
2021/07/24 05:49:20;;;;;;;0.50;0.37;;;18.80;99.90;;;;;;5094752;28;20459;-81
2021/07/24 05:51:46;;;;;;;0.50;0.40;;;19.00;99.90;;;;;;5095865;28;20439;-83
2021/07/24 05:54:17;;;;;;;3.27;1.03;;;19.20;99.90;;;;;;5095662;28;20436;-83
2021/07/24 05:56:44;;;;;;;0.50;0.40;;;19.40;99.90;;;;;;5096110;28;20514;-83
2021/07/24 05:59:11;;;;;;;0.63;0.60;;;19.50;99.90;;;;;;5096619;28;20463;-83
2021/07/24 06:01:38;;;;;;;0.90;0.90;;;19.70;99.90;;;;;;5097309;28;20428;-80
2021/07/24 06:04:05;;;;;;;0.50;0.30;;;19.70;99.90;;;;;;5100354;28;20447;-83
2021/07/24 06:06:31;;;;;;;0.50;0.40;;;19.70;99.90;;;;;;5097367;28;20471;-83
2021/07/24 06:08:58;;;;;;;3.03;2.93;;;19.80;99.90;;;;;;5099073;28;20464;-84
2021/07/24 06:11:26;;;;;;;0.50;0.30;;;19.90;99.90;;;;;;5097396;28;20443;-82
2021/07/24 06:13:53;;;;;;;0.50;0.40;;;20.00;99.90;;;;;;5097443;28;20475;-84
2021/07/24 06:16:20;;;;;;;0.70;0.50;;;20.10;99.90;;;;;;5096876;28;20440;-83
2021/07/24 06:18:46;;;;;;;0.50;0.30;;;20.40;99.90;;;;;;5096684;28;20456;-84
2021/07/24 06:21:17;;;;;;;0.50;0.30;;;20.70;99.90;;;;;;5095871;28;20444;-83
2021/07/24 06:23:43;;;;;;;0.50;0.30;;;21.30;99.90;;;;;;5095009;28;20444;-83
2021/07/24 06:26:10;;;;;;;0.50;0.33;;;21.50;99.90;;;;;;5096629;28;20483;-83
2021/07/24 06:28:38;;;;;;;0.50;0.30;;;21.90;99.90;;;;;;5096243;28;20455;-82
2021/07/24 06:31:05;;;;;;;0.50;0.33;;;22.60;99.90;;;;;;5095712;28;20437;-83
2021/07/24 06:33:33;;;;;;;0.50;0.40;;;23.10;99.90;;;;;;5096368;28;20813;-83
2021/07/24 06:36:00;;;;;;;0.50;0.40;;;23.50;99.90;;;;;;5097925;28;20443;-85
2021/07/24 06:38:27;;;;;;;0.50;0.40;;;23.70;99.90;;;;;;5096047;28;20460;-83
2021/07/24 06:40:54;;;;;;;0.50;0.40;;;23.80;99.90;;;;;;5095685;28;20443;-83
2021/07/24 06:43:20;;;;;;;0.50;0.30;;;24.10;99.90;;;;;;5095586;28;20435;-83
2021/07/24 06:45:49;;;;;;;0.50;0.30;;;24.50;99.90;;;;;;5096716;28;20481;-83
2021/07/24 06:48:15;;;;;;;0.50;0.30;;;24.70;99.90;;;;;;5094985;28;20541;-83
2021/07/24 06:50:42;;;;;;;0.50;0.30;;;24.90;99.90;;;;;;5096062;28;20440;-83
2021/07/24 06:53:09;;;;;;;0.50;0.50;;;25.30;99.90;;;;;;5094768;28;20438;-81
2021/07/24 06:55:36;;;;;;;0.50;0.30;;;25.60;99.90;;;;;;5095330;28;20944;-83
2021/07/24 06:58:03;;;;;;;0.50;0.30;;;25.50;99.90;;;;;;5096123;28;20452;-84
2021/07/24 07:00:30;;;;;;;0.50;0.30;;;25.70;99.90;;;;;;5095067;28;20439;-83
2021/07/24 07:02:59;;;;;;;0.50;0.30;;;25.90;99.90;;;;;;5095513;28;20992;-84
2021/07/24 07:05:26;;;;;;;0.50;0.30;;;26.10;99.90;;;;;;5095614;28;20472;-84
2021/07/24 07:07:53;;;;;;;0.80;0.80;;;26.30;99.90;;;;;;5097008;28;20463;-84
2021/07/24 07:10:21;;;;;;;0.50;0.30;;;26.40;99.90;;;;;;5094626;28;20515;-83
2021/07/24 07:12:48;;;;;;;0.50;0.30;;;26.00;99.90;;;;;;5095068;28;20446;-83
2021/07/24 07:15:15;;;;;;;0.50;0.40;;;25.90;99.90;;;;;;5094602;28;20794;-83
2021/07/24 07:17:42;;;;;;;1.17;1.03;;;25.90;99.90;;;;;;5095050;28;20467;-83
2021/07/24 07:20:11;;;;;;;4.80;1.67;;;25.50;99.90;;;;;;5094900;28;20444;-81
2021/07/24 07:22:38;;;;;;;2.97;1.90;;;25.00;99.90;;;;;;5095193;28;20440;-83
2021/07/24 07:25:05;;;;;;;0.50;0.30;;;24.90;99.90;;;;;;5095440;28;20829;-83
2021/07/24 07:27:32;;;;;;;0.50;0.30;;;25.00;99.90;;;;;;5095162;28;20455;-84
2021/07/24 07:29:59;;;;;;;0.50;0.30;;;24.60;99.90;;;;;;5095156;28;20443;-82
2021/07/24 07:32:26;;;;;;;0.50;0.30;;;24.20;99.90;;;;;;5094931;28;20952;-84
2021/07/24 07:34:53;;;;;;;0.60;0.50;;;24.10;99.90;;;;;;5095106;28;20812;-83
2021/07/24 07:37:22;;;;;;;0.50;0.30;;;24.10;99.90;;;;;;5094078;28;20872;-83
2021/07/24 07:39:49;;;;;;;0.50;0.30;;;24.20;99.90;;;;;;5095221;28;20462;-84
2021/07/24 07:42:15;;;;;;;0.53;0.50;;;24.20;99.90;;;;;;5094409;28;20454;-83
2021/07/24 07:44:42;;;;;;;0.50;0.30;;;24.40;99.90;;;;;;5094504;28;20512;-84
2021/07/24 07:47:09;;;;;;;0.50;0.30;;;24.20;99.90;;;;;;5094657;28;20818;-83
2021/07/24 07:49:36;;;;;;;0.50;0.30;;;24.20;99.90;;;;;;5094636;28;20439;-83
2021/07/24 07:52:03;;;;;;;1.53;1.43;;;24.30;99.90;;;;;;5094680;28;20449;-83
2021/07/24 07:54:33;;;;;;;12.30;2.10;;;24.60;99.90;;;;;;5095529;28;20439;-83
2021/07/24 07:56:59;;;;;;;0.50;0.30;;;24.80;99.90;;;;;;5094986;28;21001;-84
2021/07/24 07:59:26;;;;;;;4.57;1.80;;;25.10;99.90;;;;;;5094778;28;20460;-83
2021/07/24 08:01:53;;;;;;;0.50;0.30;;;25.40;99.90;;;;;;5094487;28;20525;-84
2021/07/24 08:04:20;;;;;;;0.50;0.30;;;25.80;99.90;;;;;;5095135;28;20440;-79
2021/07/24 08:06:47;;;;;;;0.50;0.30;;;26.60;99.90;;;;;;5095562;28;20468;-84
2021/07/24 08:09:14;;;;;;;0.50;0.30;;;27.60;99.90;;;;;;5095002;28;20475;-83
2021/07/24 08:11:42;;;;;;;0.50;0.30;;;28.40;99.90;;;;;;5095547;28;20435;-83
2021/07/24 08:14:08;;;;;;;0.50;0.30;;;29.70;99.90;;;;;;5098508;28;20795;-84
2021/07/24 08:16:35;;;;;;;0.50;0.30;;;31.10;99.70;;;;;;5098773;28;20869;-85
2021/07/24 08:19:02;;;;;;;0.50;0.30;;;32.60;94.30;;;;;;5098240;28;20466;-85
2021/07/24 08:21:29;;;;;;;0.70;0.50;;;33.80;87.20;;;;;;5098359;28;20439;-81
2021/07/24 08:23:55;;;;;;;1.77;1.57;;;35.00;74.70;;;;;;5098317;28;20812;-83
2021/07/24 08:26:22;;;;;;;0.50;0.30;;;35.00;68.80;;;;;;5097477;28;21025;-84
2021/07/24 08:28:50;;;;;;;0.50;0.40;;;35.20;66.20;;;;;;5098385;28;20467;-82
2021/07/24 08:31:17;;;;;;;0.50;0.30;;;35.20;66.00;;;;;;5098218;28;20451;-84
2021/07/24 08:33:44;;;;;;;0.40;0.40;;;34.60;65.70;;;;;;5098775;28;21167;-83
2021/07/24 08:36:11;;;;;;;0.50;0.50;;;34.80;65.00;;;;;;5098022;28;20443;-81
2021/07/24 08:38:38;;;;;;;0.50;0.30;;;34.40;66.20;;;;;;5098726;28;20468;-82
2021/07/24 08:41:05;;;;;;;0.50;0.40;;;34.70;65.50;;;;;;5098921;28;20441;-82
2021/07/24 08:43:32;;;;;;;0.40;0.30;;;34.30;65.90;;;;;;5099217;28;20432;-82
2021/07/24 08:46:00;;;;;;;0.50;0.30;;;34.60;65.80;;;;;;5098508;28;20476;-83
2021/07/24 08:48:26;;;;;;;0.63;0.63;;;34.10;65.70;;;;;;5098154;28;20821;-85
2021/07/24 08:50:56;;;;;;;0.50;0.30;;;34.10;67.90;;;;;;5098386;28;20552;-83
2021/07/24 08:53:25;;;;;;;0.50;0.40;;;33.20;67.10;;;;;;5098515;28;20928;-84
2021/07/24 08:56:02;;;;;;;0.50;0.37;;;32.40;68.80;;;;;;5098544;28;20488;-84
2021/07/24 08:58:32;;;;;;;0.50;0.30;;;32.10;70.90;;;;;;5096403;28;20458;-84
2021/07/24 09:01:00;;;;;;;0.60;0.60;;;31.70;73.70;;;;;;5098888;28;20436;-82
2021/07/24 09:03:32;;;;;;;0.50;0.43;;;32.00;76.20;;;;;;5097720;28;20440;-83
2021/07/24 09:06:00;;;;;;;0.90;0.90;;;32.40;73.30;;;;;;5097835;28;20467;-82
2021/07/24 09:08:27;;;;;;;0.50;0.43;;;32.70;73.30;;;;;;5097378;28;20471;-82
2021/07/24 09:10:54;;;;;;;0.50;0.30;;;33.80;71.20;;;;;;5098340;28;20438;-83
2021/07/24 09:13:21;;;;;;;0.50;0.30;;;35.00;72.20;;;;;;5097998;28;20482;-79
2021/07/24 09:15:48;;;;;;;0.50;0.30;;;36.00;65.10;;;;;;5097563;28;20936;-82
2021/07/24 09:18:18;;;;;;;0.50;0.50;;;37.40;65.10;;;;;;5097493;28;20458;-82
2021/07/24 09:20:47;;;;;;;1.37;1.27;;;37.90;58.70;;;;;;5097748;28;20530;-83
2021/07/24 09:23:32;;;;;;;0.40;0.30;;;37.40;59.00;;;;;;5097322;28;20437;-83
2021/07/24 09:26:00;;;;;;;0.40;0.30;;;36.80;59.60;;;;;;5097927;28;20503;-83
2021/07/24 09:28:27;;;;;;;0.40;0.30;;;36.30;62.00;;;;;;5097102;28;20827;-82
2021/07/24 09:30:54;;;;;;;1.27;1.17;;;36.20;61.40;;;;;;5096980;28;20451;-84
2021/07/24 09:33:22;;;;;;;0.40;0.30;;;36.10;60.00;;;;;;5097422;28;20926;-83
2021/07/24 09:35:52;;;;;;;0.40;0.30;;;35.60;62.60;;;;;;5096611;28;20474;-85
2021/07/24 09:38:27;;;;;;;0.40;0.30;;;35.60;63.80;;;;;;5105877;28;20459;-83
2021/07/24 09:40:55;;;;;;;0.40;0.30;;;35.40;62.70;;;;;;5099653;28;20440;-83
2021/07/24 09:43:31;;;;;;;0.50;0.30;;;34.80;64.50;;;;;;5101729;28;20437;-83
2021/07/24 09:46:09;;;;;;;0.50;0.30;;;34.10;66.90;;;;;;5101527;28;20475;-83
2021/07/24 09:48:38;;;;;;;1.60;0.57;;;33.50;68.20;;;;;;5101587;28;20459;-83
2021/07/24 09:51:05;;;;;;;0.50;0.30;;;33.20;70.90;;;;;;5100581;28;20437;-85
2021/07/24 09:53:41;;;;;;;0.50;0.30;;;32.60;68.00;;;;;;5100604;28;20446;-85
2021/07/24 09:56:11;;;;;;;0.50;0.30;;;32.00;71.80;;;;;;5101342;28;20447;-83
2021/07/24 09:58:39;;;;;;;0.50;0.40;;;31.60;72.40;;;;;;5101603;28;20462;-83
2021/07/24 10:01:07;;;;;;;0.50;0.30;;;31.30;76.90;;;;;;5100702;28;20510;-83
2021/07/24 10:03:39;;;;;;;0.50;0.30;;;31.10;78.30;;;;;;5100834;28;20445;-83
2021/07/24 10:06:14;;;;;;;0.50;0.30;;;31.40;82.00;;;;;;5101401;28;20475;-83
2021/07/24 10:08:42;;;;;;;0.50;0.30;;;31.80;79.30;;;;;;5100602;28;20848;-83
2021/07/24 10:11:09;;;;;;;0.50;0.30;;;32.10;80.50;;;;;;5100568;28;20516;-83
2021/07/24 10:13:38;;;;;;;0.73;0.60;;;32.00;77.70;;;;;;5101009;28;20451;-83
2021/07/24 10:16:05;;;;;;;0.50;0.30;;;31.60;77.80;;;;;;5100501;28;20436;-83
2021/07/24 10:18:33;;;;;;;0.60;0.53;;;31.20;81.10;;;;;;5100793;28;20457;-83
2021/07/24 10:21:00;;;;;;;0.67;0.67;;;30.70;81.50;;;;;;5099926;28;20439;-83
2021/07/24 10:23:29;;;;;;;0.50;0.30;;;30.20;90.60;;;;;;5099647;28;20447;-83
2021/07/24 10:26:03;;;;;;;0.50;0.30;;;29.90;86.40;;;;;;5100420;28;20449;-83
2021/07/24 10:28:35;;;;;;;1.17;1.03;;;29.90;90.30;;;;;;5099951;28;20466;-83
2021/07/24 10:31:10;;;;;;;0.50;0.30;;;29.70;91.20;;;;;;5100361;28;20433;-83
2021/07/24 10:33:37;;;;;;;0.50;0.30;;;29.70;93.50;;;;;;5098995;28;20442;-79
2021/07/24 10:36:12;;;;;;;0.50;0.30;;;29.60;94.40;;;;;;5099186;28;20857;-83
2021/07/24 10:38:57;;;;;;;0.63;0.63;;;29.60;94.70;;;;;;5099931;28;20454;-84
2021/07/24 10:41:40;;;;;;;0.50;0.30;;;29.10;95.30;;;;;;5098322;28;20436;-83
2021/07/24 10:44:09;;;;;;;0.50;0.40;;;29.00;97.50;;;;;;5099265;28;20436;-84
2021/07/24 10:47:15;;;;;;;0.50;0.30;;;28.90;99.90;;;;;;5096748;28;20471;-83
2021/07/24 10:50:02;;;;;;;0.50;0.40;;;28.80;99.90;;;;;;5098182;28;20436;-83
2021/07/24 10:53:12;;;;;;;0.50;0.50;;;28.50;99.90;;;;;;5097681;28;20443;-83
2021/07/24 10:55:45;;;;;;;3.70;2.43;;;28.30;99.90;;;;;;5097098;28;20427;-82
2021/07/24 10:58:12;;;;;;;0.50;0.30;;;28.10;99.90;;;;;;5097744;28;20455;-83
2021/07/24 11:00:50;;;;;;;1.23;1.13;;;27.90;99.90;;;;;;5097871;28;20468;-83
2021/07/24 11:03:49;;;;;;;0.50;0.30;;;27.70;99.90;;;;;;5098245;28;20443;-83
2021/07/24 11:06:27;;;;;;;0.50;0.30;;;27.30;99.90;;;;;;5097743;28;20856;-83
2021/07/24 11:09:24;;;;;;;2.40;0.67;;;26.90;99.90;;;;;;5097519;28;20467;-84
2021/07/24 11:12:08;;;;;;;3.83;2.63;;;26.50;99.90;;;;;;5097474;28;20430;-83
2021/07/24 11:14:57;;;;;;;0.50;0.30;;;26.30;99.90;;;;;;5097563;28;20469;-83
2021/07/24 11:17:24;;;;;;;0.50;0.30;;;26.00;99.90;;;;;;5097377;28;20423;-83
2021/07/24 11:20:34;;;;;;;0.50;0.50;;;26.10;99.90;;;;;;5096867;28;20435;-82
2021/07/24 11:23:10;;;;;;;0.50;0.37;;;26.20;99.90;;;;;;5098264;28;20440;-83
2021/07/24 11:25:39;;;;;;;2.10;2.00;;;26.10;99.90;;;;;;5097706;28;20815;-84
2021/07/24 11:28:08;;;;;;;0.60;0.50;;;26.00;99.90;;;;;;5097104;28;21004;-83
2021/07/24 11:30:36;;;;;;;0.60;0.40;;;25.60;99.90;;;;;;5097106;28;20447;-83
2021/07/24 11:33:04;;;;;;;0.50;0.30;;;25.30;99.90;;;;;;5096789;28;20433;-82
2021/07/24 11:35:37;;;;;;;4.50;3.77;;;25.30;99.90;;;;;;5097353;28;20444;-82
2021/07/24 11:38:03;;;;;;;3.90;1.40;;;25.20;99.90;;;;;;5097531;28;20460;-82
2021/07/24 11:40:32;;;;;;;4.20;3.80;;;25.00;99.90;;;;;;5096670;28;20444;-84
2021/07/24 11:43:04;;;;;;;1.37;1.27;;;25.00;99.90;;;;;;5098396;28;20454;-83
2021/07/24 11:45:33;;;;;;;1.13;0.93;;;24.80;99.90;;;;;;5098055;28;20420;-82
2021/07/24 11:48:07;;;;;;;1.10;1.03;;;24.70;99.90;;;;;;5101111;28;20483;-82
2021/07/24 11:50:34;;;;;;;0.50;0.30;;;24.70;99.90;;;;;;5101440;28;20968;-85
2021/07/24 11:53:02;;;;;;;0.50;0.30;;;24.80;99.90;;;;;;5099605;28;20821;-84
2021/07/24 11:55:32;;;;;;;0.50;0.30;;;24.90;99.90;;;;;;5101713;28;20448;-82
2021/07/24 11:58:03;;;;;;;0.50;0.40;;;24.80;99.90;;;;;;5100980;28;20471;-84
2021/07/24 12:00:32;;;;;;;0.50;0.50;;;24.80;99.90;;;;;;5101634;28;20432;-84
2021/07/24 12:03:15;;;;;;;0.67;0.67;;;24.80;99.90;;;;;;5100493;28;20466;-85
2021/07/24 12:05:43;;;;;;;2.23;2.07;;;24.90;99.90;;;;;;5101245;28;20461;-85
2021/07/24 12:08:10;;;;;;;0.80;0.70;;;25.00;99.90;;;;;;5099912;28;20506;-81
2021/07/24 12:10:38;;;;;;;0.50;0.50;;;25.00;99.90;;;;;;5100179;28;20440;-85
2021/07/24 12:13:06;;;;;;;0.50;0.30;;;25.20;99.90;;;;;;5100792;28;20440;-84
2021/07/24 12:15:56;;;;;;;0.63;0.57;;;25.60;99.90;;;;;;5100591;28;20446;-84
2021/07/24 12:18:23;;;;;;;0.67;0.67;;;26.00;99.90;;;;;;5100439;28;20448;-85
2021/07/24 12:20:51;;;;;;;3.40;1.20;;;26.10;99.90;;;;;;5099209;28;20442;-84
2021/07/24 12:23:19;;;;;;;0.53;0.43;;;25.60;99.90;;;;;;5099958;28;20436;-84
2021/07/24 12:25:46;;;;;;;0.50;0.40;;;25.60;99.90;;;;;;5099718;28;20447;-85
2021/07/24 12:28:31;;;;;;;0.50;0.30;;;25.60;99.90;;;;;;5100076;28;20480;-85
2021/07/24 12:31:17;;;;;;;0.50;0.30;;;25.70;99.90;;;;;;5098302;28;20420;-85
2021/07/24 12:33:49;;;;;;;1.13;1.13;;;25.80;99.90;;;;;;5099994;28;20433;-85
2021/07/24 12:36:15;;;;;;;1.57;1.40;;;25.90;99.90;;;;;;5099549;28;20433;-84
2021/07/24 12:38:42;;;;;;;1.33;1.23;;;25.80;99.90;;;;;;5100394;28;20458;-85
2021/07/24 12:41:09;;;;;;;1.63;1.40;;;25.70;99.90;;;;;;5099882;28;20804;-84
2021/07/24 12:43:39;;;;;;;3.53;2.40;;;25.90;99.90;;;;;;5099501;28;20436;-85
2021/07/24 12:46:17;;;;;;;1.33;1.03;;;26.10;99.90;;;;;;5099762;28;20440;-85
2021/07/24 12:48:47;;;;;;;0.50;0.40;;;26.20;99.90;;;;;;5099281;28;20481;-85
2021/07/24 12:51:17;;;;;;;0.80;0.50;;;26.20;99.90;;;;;;5100794;28;20446;-84
2021/07/24 12:53:48;;;;;;;0.60;0.60;;;26.30;99.90;;;;;;5098759;28;20440;-85
2021/07/24 12:56:15;;;;;;;0.93;0.93;;;26.40;99.90;;;;;;5099267;28;20575;-84
2021/07/24 12:58:42;;;;;;;1.03;0.93;;;26.30;99.90;;;;;;5099660;28;20452;-85
2021/07/24 13:01:10;;;;;;;2.30;2.10;;;26.30;99.90;;;;;;5099258;28;20503;-85